sensor_id;sensor_type;location;lat;lon;timestamp;P1;durP1;ratioP1;P2;durP2;ratioP2
25249;SDS011;13201;51.148;13.738;2023-04-15T00:00:02;1.35;;;0.90;;
25249;SDS011;13201;51.148;13.738;2023-04-15T00:02:29;0.88;;;0.80;;
25249;SDS011;13201;51.148;13.738;2023-04-15T00:04:55;1.30;;;1.20;;
25249;SDS011;13201;51.148;13.738;2023-04-15T00:07:20;1.10;;;0.98;;
25249;SDS011;13201;51.148;13.738;2023-04-15T00:09:46;1.15;;;1.05;;
25249;SDS011;13201;51.148;13.738;2023-04-15T00:12:12;1.02;;;0.90;;
25249;SDS011;13201;51.148;13.738;2023-04-15T00:14:37;1.52;;;1.00;;
25249;SDS011;13201;51.148;13.738;2023-04-15T00:17:03;2.50;;;1.10;;
25249;SDS011;13201;51.148;13.738;2023-04-15T00:19:29;1.13;;;1.00;;
25249;SDS011;13201;51.148;13.738;2023-04-15T00:21:55;0.93;;;0.93;;
25249;SDS011;13201;51.148;13.738;2023-04-15T00:24:21;2.25;;;1.10;;
25249;SDS011;13201;51.148;13.738;2023-04-15T00:26:48;1.20;;;0.90;;
25249;SDS011;13201;51.148;13.738;2023-04-15T00:29:13;1.40;;;1.05;;
25249;SDS011;13201;51.148;13.738;2023-04-15T00:31:39;1.08;;;0.98;;
25249;SDS011;13201;51.148;13.738;2023-04-15T00:34:06;1.10;;;0.80;;
25249;SDS011;13201;51.148;13.738;2023-04-15T00:36:32;1.23;;;1.02;;
25249;SDS011;13201;51.148;13.738;2023-04-15T00:38:59;1.02;;;0.70;;
25249;SDS011;13201;51.148;13.738;2023-04-15T00:41:25;1.50;;;0.90;;
25249;SDS011;13201;51.148;13.738;2023-04-15T00:43:50;1.23;;;1.00;;
25249;SDS011;13201;51.148;13.738;2023-04-15T00:46:16;0.80;;;0.80;;
25249;SDS011;13201;51.148;13.738;2023-04-15T00:48:44;0.70;;;0.70;;
25249;SDS011;13201;51.148;13.738;2023-04-15T00:51:11;1.35;;;0.95;;
25249;SDS011;13201;51.148;13.738;2023-04-15T00:53:37;0.95;;;0.80;;
25249;SDS011;13201;51.148;13.738;2023-04-15T00:56:04;0.93;;;0.80;;
25249;SDS011;13201;51.148;13.738;2023-04-15T00:58:30;1.40;;;1.00;;
25249;SDS011;13201;51.148;13.738;2023-04-15T01:00:56;1.17;;;0.88;;
25249;SDS011;13201;51.148;13.738;2023-04-15T01:03:23;0.90;;;0.70;;
25249;SDS011;13201;51.148;13.738;2023-04-15T01:30:40;1.40;;;1.23;;
25249;SDS011;13201;51.148;13.738;2023-04-15T01:33:05;1.52;;;1.38;;
25249;SDS011;13201;51.148;13.738;2023-04-15T01:35:31;1.63;;;1.50;;
25249;SDS011;13201;51.148;13.738;2023-04-15T01:38:07;1.50;;;1.38;;
25249;SDS011;13201;51.148;13.738;2023-04-15T01:40:34;1.70;;;1.20;;
25249;SDS011;13201;51.148;13.738;2023-04-15T01:43:02;1.30;;;1.20;;
25249;SDS011;13201;51.148;13.738;2023-04-15T01:45:28;1.40;;;1.00;;
25249;SDS011;13201;51.148;13.738;2023-04-15T01:47:54;1.70;;;1.30;;
25249;SDS011;13201;51.148;13.738;2023-04-15T01:50:20;1.50;;;1.30;;
25249;SDS011;13201;51.148;13.738;2023-04-15T01:52:46;1.48;;;1.17;;
25249;SDS011;13201;51.148;13.738;2023-04-15T01:55:12;1.15;;;1.05;;
25249;SDS011;13201;51.148;13.738;2023-04-15T01:57:38;1.47;;;1.30;;
25249;SDS011;13201;51.148;13.738;2023-04-15T02:00:05;1.10;;;1.00;;
25249;SDS011;13201;51.148;13.738;2023-04-15T02:02:34;1.38;;;1.02;;
25249;SDS011;13201;51.148;13.738;2023-04-15T02:04:59;2.25;;;1.30;;
25249;SDS011;13201;51.148;13.738;2023-04-15T02:07:25;1.63;;;1.33;;
25249;SDS011;13201;51.148;13.738;2023-04-15T02:09:52;1.00;;;0.90;;
25249;SDS011;13201;51.148;13.738;2023-04-15T02:12:18;1.00;;;0.85;;
25249;SDS011;13201;51.148;13.738;2023-04-15T02:14:44;1.00;;;0.90;;
25249;SDS011;13201;51.148;13.738;2023-04-15T02:17:09;0.80;;;0.73;;
25249;SDS011;13201;51.148;13.738;2023-04-15T02:19:35;1.55;;;1.33;;
25249;SDS011;13201;51.148;13.738;2023-04-15T02:22:01;1.88;;;1.40;;
25249;SDS011;13201;51.148;13.738;2023-04-15T02:24:28;1.52;;;1.20;;
25249;SDS011;13201;51.148;13.738;2023-04-15T02:26:54;1.60;;;1.33;;
25249;SDS011;13201;51.148;13.738;2023-04-15T02:29:20;1.40;;;1.23;;
25249;SDS011;13201;51.148;13.738;2023-04-15T02:31:47;1.40;;;1.17;;
25249;SDS011;13201;51.148;13.738;2023-04-15T02:34:13;1.83;;;1.30;;
25249;SDS011;13201;51.148;13.738;2023-04-15T02:36:39;1.35;;;1.23;;
25249;SDS011;13201;51.148;13.738;2023-04-15T02:39:05;1.70;;;1.15;;
25249;SDS011;13201;51.148;13.738;2023-04-15T02:41:31;1.40;;;1.30;;
25249;SDS011;13201;51.148;13.738;2023-04-15T02:43:57;1.45;;;1.13;;
25249;SDS011;13201;51.148;13.738;2023-04-15T02:46:22;2.55;;;1.23;;
25249;SDS011;13201;51.148;13.738;2023-04-15T02:48:48;1.10;;;1.00;;
25249;SDS011;13201;51.148;13.738;2023-04-15T02:51:15;1.92;;;1.27;;
25249;SDS011;13201;51.148;13.738;2023-04-15T02:53:48;1.35;;;1.05;;
25249;SDS011;13201;51.148;13.738;2023-04-15T02:56:14;1.40;;;1.10;;
25249;SDS011;13201;51.148;13.738;2023-04-15T02:58:41;0.98;;;0.88;;
25249;SDS011;13201;51.148;13.738;2023-04-15T03:01:09;1.25;;;1.13;;
25249;SDS011;13201;51.148;13.738;2023-04-15T03:03:34;1.20;;;1.08;;
25249;SDS011;13201;51.148;13.738;2023-04-15T03:06:00;1.80;;;1.10;;
25249;SDS011;13201;51.148;13.738;2023-04-15T03:08:26;1.70;;;1.42;;
25249;SDS011;13201;51.148;13.738;2023-04-15T03:10:51;1.35;;;1.20;;
25249;SDS011;13201;51.148;13.738;2023-04-15T03:13:18;1.60;;;1.20;;
25249;SDS011;13201;51.148;13.738;2023-04-15T03:15:45;1.60;;;1.27;;
25249;SDS011;13201;51.148;13.738;2023-04-15T03:18:11;1.77;;;1.30;;
25249;SDS011;13201;51.148;13.738;2023-04-15T03:20:37;1.75;;;1.40;;
25249;SDS011;13201;51.148;13.738;2023-04-15T03:23:02;1.83;;;1.30;;
25249;SDS011;13201;51.148;13.738;2023-04-15T03:25:28;1.90;;;1.50;;
25249;SDS011;13201;51.148;13.738;2023-04-15T03:27:54;1.40;;;1.30;;
25249;SDS011;13201;51.148;13.738;2023-04-15T03:30:20;1.48;;;1.30;;
25249;SDS011;13201;51.148;13.738;2023-04-15T03:32:46;1.70;;;1.35;;
25249;SDS011;13201;51.148;13.738;2023-04-15T03:35:11;1.55;;;1.33;;
25249;SDS011;13201;51.148;13.738;2023-04-15T03:37:37;1.98;;;1.55;;
25249;SDS011;13201;51.148;13.738;2023-04-15T03:40:03;2.53;;;1.63;;
25249;SDS011;13201;51.148;13.738;2023-04-15T03:42:29;2.00;;;1.33;;
25249;SDS011;13201;51.148;13.738;2023-04-15T03:44:54;2.13;;;1.60;;
25249;SDS011;13201;51.148;13.738;2023-04-15T03:47:20;2.15;;;1.40;;
25249;SDS011;13201;51.148;13.738;2023-04-15T03:49:46;1.67;;;1.48;;
25249;SDS011;13201;51.148;13.738;2023-04-15T03:52:12;1.98;;;1.50;;
25249;SDS011;13201;51.148;13.738;2023-04-15T03:54:37;1.98;;;1.63;;
25249;SDS011;13201;51.148;13.738;2023-04-15T03:57:03;2.90;;;1.77;;
25249;SDS011;13201;51.148;13.738;2023-04-15T03:59:29;3.10;;;1.83;;
25249;SDS011;13201;51.148;13.738;2023-04-15T04:01:54;1.88;;;1.58;;
25249;SDS011;13201;51.148;13.738;2023-04-15T04:04:20;2.38;;;1.88;;
25249;SDS011;13201;51.148;13.738;2023-04-15T04:06:46;2.72;;;2.10;;
25249;SDS011;13201;51.148;13.738;2023-04-15T04:09:12;3.13;;;2.15;;
25249;SDS011;13201;51.148;13.738;2023-04-15T04:11:37;3.33;;;2.30;;
25249;SDS011;13201;51.148;13.738;2023-04-15T04:14:03;2.83;;;1.98;;
25249;SDS011;13201;51.148;13.738;2023-04-15T04:16:29;5.28;;;2.42;;
25249;SDS011;13201;51.148;13.738;2023-04-15T04:18:54;4.47;;;2.80;;
25249;SDS011;13201;51.148;13.738;2023-04-15T04:21:20;4.45;;;2.78;;
25249;SDS011;13201;51.148;13.738;2023-04-15T04:23:46;3.65;;;2.70;;
25249;SDS011;13201;51.148;13.738;2023-04-15T04:26:12;5.45;;;2.60;;
25249;SDS011;13201;51.148;13.738;2023-04-15T04:28:37;3.33;;;2.55;;
25249;SDS011;13201;51.148;13.738;2023-04-15T04:31:05;3.35;;;2.33;;
25249;SDS011;13201;51.148;13.738;2023-04-15T04:33:31;4.40;;;2.63;;
25249;SDS011;13201;51.148;13.738;2023-04-15T04:35:57;3.58;;;2.67;;
25249;SDS011;13201;51.148;13.738;2023-04-15T04:38:23;3.35;;;2.65;;
25249;SDS011;13201;51.148;13.738;2023-04-15T04:40:49;4.40;;;3.05;;
25249;SDS011;13201;51.148;13.738;2023-04-15T04:43:14;4.15;;;2.65;;
25249;SDS011;13201;51.148;13.738;2023-04-15T04:45:40;4.57;;;2.88;;
25249;SDS011;13201;51.148;13.738;2023-04-15T04:48:06;4.80;;;3.23;;
25249;SDS011;13201;51.148;13.738;2023-04-15T04:50:34;4.93;;;3.40;;
25249;SDS011;13201;51.148;13.738;2023-04-15T04:53:00;8.27;;;3.45;;
25249;SDS011;13201;51.148;13.738;2023-04-15T04:55:26;6.60;;;4.10;;
25249;SDS011;13201;51.148;13.738;2023-04-15T04:57:52;5.72;;;3.80;;
25249;SDS011;13201;51.148;13.738;2023-04-15T05:00:18;8.57;;;4.60;;
25249;SDS011;13201;51.148;13.738;2023-04-15T05:02:44;5.63;;;3.87;;
25249;SDS011;13201;51.148;13.738;2023-04-15T05:05:10;8.40;;;4.00;;
25249;SDS011;13201;51.148;13.738;2023-04-15T05:07:37;5.35;;;3.35;;
25249;SDS011;13201;51.148;13.738;2023-04-15T05:10:03;4.90;;;3.15;;
25249;SDS011;13201;51.148;13.738;2023-04-15T05:12:30;4.32;;;2.92;;
25249;SDS011;13201;51.148;13.738;2023-04-15T05:14:56;4.73;;;3.77;;
25249;SDS011;13201;51.148;13.738;2023-04-15T05:17:22;3.00;;;2.40;;
25249;SDS011;13201;51.148;13.738;2023-04-15T05:19:48;4.10;;;3.15;;
25249;SDS011;13201;51.148;13.738;2023-04-15T05:22:13;5.03;;;3.60;;
25249;SDS011;13201;51.148;13.738;2023-04-15T05:24:39;3.88;;;2.88;;
25249;SDS011;13201;51.148;13.738;2023-04-15T05:27:06;3.78;;;2.58;;
25249;SDS011;13201;51.148;13.738;2023-04-15T05:29:32;3.85;;;2.72;;
25249;SDS011;13201;51.148;13.738;2023-04-15T05:31:58;3.47;;;2.43;;
25249;SDS011;13201;51.148;13.738;2023-04-15T05:34:24;4.85;;;2.88;;
25249;SDS011;13201;51.148;13.738;2023-04-15T05:36:50;3.72;;;2.78;;
25249;SDS011;13201;51.148;13.738;2023-04-15T05:39:16;3.60;;;2.67;;
25249;SDS011;13201;51.148;13.738;2023-04-15T05:41:42;3.35;;;2.40;;
25249;SDS011;13201;51.148;13.738;2023-04-15T05:44:08;3.58;;;2.47;;
25249;SDS011;13201;51.148;13.738;2023-04-15T05:46:33;3.30;;;2.33;;
25249;SDS011;13201;51.148;13.738;2023-04-15T05:48:59;3.58;;;2.50;;
25249;SDS011;13201;51.148;13.738;2023-04-15T05:51:25;2.97;;;2.13;;
25249;SDS011;13201;51.148;13.738;2023-04-15T05:53:51;3.45;;;2.45;;
25249;SDS011;13201;51.148;13.738;2023-04-15T05:56:16;3.50;;;2.40;;
25249;SDS011;13201;51.148;13.738;2023-04-15T05:58:44;3.38;;;2.30;;
25249;SDS011;13201;51.148;13.738;2023-04-15T06:01:10;2.97;;;2.17;;
25249;SDS011;13201;51.148;13.738;2023-04-15T06:03:36;3.45;;;2.50;;
25249;SDS011;13201;51.148;13.738;2023-04-15T06:06:02;3.13;;;2.25;;
25249;SDS011;13201;51.148;13.738;2023-04-15T06:08:28;3.63;;;2.50;;
25249;SDS011;13201;51.148;13.738;2023-04-15T06:10:54;3.10;;;1.92;;
25249;SDS011;13201;51.148;13.738;2023-04-15T06:13:20;2.47;;;1.73;;
25249;SDS011;13201;51.148;13.738;2023-04-15T06:15:45;2.92;;;1.80;;
25249;SDS011;13201;51.148;13.738;2023-04-15T06:18:11;2.75;;;1.70;;
25249;SDS011;13201;51.148;13.738;2023-04-15T06:20:37;2.30;;;1.73;;
25249;SDS011;13201;51.148;13.738;2023-04-15T06:23:02;2.40;;;1.80;;
25249;SDS011;13201;51.148;13.738;2023-04-15T06:25:28;2.40;;;1.88;;
25249;SDS011;13201;51.148;13.738;2023-04-15T06:27:54;2.30;;;1.90;;
25249;SDS011;13201;51.148;13.738;2023-04-15T06:30:21;3.17;;;2.20;;
25249;SDS011;13201;51.148;13.738;2023-04-15T06:32:47;3.00;;;1.95;;
25249;SDS011;13201;51.148;13.738;2023-04-15T06:35:12;2.97;;;2.20;;
25249;SDS011;13201;51.148;13.738;2023-04-15T06:37:38;2.92;;;2.40;;
25249;SDS011;13201;51.148;13.738;2023-04-15T06:40:04;3.17;;;2.30;;
25249;SDS011;13201;51.148;13.738;2023-04-15T06:42:30;3.28;;;2.55;;
25249;SDS011;13201;51.148;13.738;2023-04-15T06:44:56;3.83;;;2.83;;
25249;SDS011;13201;51.148;13.738;2023-04-15T06:47:22;3.30;;;2.22;;
25249;SDS011;13201;51.148;13.738;2023-04-15T06:49:47;3.05;;;2.40;;
25249;SDS011;13201;51.148;13.738;2023-04-15T06:52:13;3.67;;;2.40;;
25249;SDS011;13201;51.148;13.738;2023-04-15T06:57:06;3.78;;;2.20;;
25249;SDS011;13201;51.148;13.738;2023-04-15T06:59:33;3.53;;;2.30;;
25249;SDS011;13201;51.148;13.738;2023-04-15T07:01:58;4.03;;;1.70;;
25249;SDS011;13201;51.148;13.738;2023-04-15T07:04:24;2.65;;;1.85;;
25249;SDS011;13201;51.148;13.738;2023-04-15T07:06:50;2.88;;;1.67;;
25249;SDS011;13201;51.148;13.738;2023-04-15T07:09:15;2.35;;;1.60;;
25249;SDS011;13201;51.148;13.738;2023-04-15T07:11:41;2.80;;;1.80;;
25249;SDS011;13201;51.148;13.738;2023-04-15T07:14:07;2.20;;;1.67;;
25249;SDS011;13201;51.148;13.738;2023-04-15T07:16:32;1.90;;;1.58;;
25249;SDS011;13201;51.148;13.738;2023-04-15T07:18:58;4.13;;;1.25;;
25249;SDS011;13201;51.148;13.738;2023-04-15T07:21:24;3.13;;;2.20;;
25249;SDS011;13201;51.148;13.738;2023-04-15T07:23:51;6.90;;;3.17;;
25249;SDS011;13201;51.148;13.738;2023-04-15T07:26:17;7.38;;;3.95;;
25249;SDS011;13201;51.148;13.738;2023-04-15T07:28:42;1.33;;;1.15;;
25249;SDS011;13201;51.148;13.738;2023-04-15T07:31:10;1.38;;;1.17;;
25249;SDS011;13201;51.148;13.738;2023-04-15T07:33:36;2.08;;;1.58;;
25249;SDS011;13201;51.148;13.738;2023-04-15T07:36:01;1.42;;;1.30;;
25249;SDS011;13201;51.148;13.738;2023-04-15T07:38:27;2.13;;;1.70;;
25249;SDS011;13201;51.148;13.738;2023-04-15T07:40:53;1.53;;;1.20;;
25249;SDS011;13201;51.148;13.738;2023-04-15T07:43:20;1.00;;;0.90;;
25249;SDS011;13201;51.148;13.738;2023-04-15T07:45:46;3.70;;;2.42;;
25249;SDS011;13201;51.148;13.738;2023-04-15T07:48:11;2.10;;;1.15;;
25249;SDS011;13201;51.148;13.738;2023-04-15T07:50:37;2.30;;;1.50;;
25249;SDS011;13201;51.148;13.738;2023-04-15T07:53:03;2.03;;;1.40;;
25249;SDS011;13201;51.148;13.738;2023-04-15T07:55:30;0.60;;;0.60;;
25249;SDS011;13201;51.148;13.738;2023-04-15T07:57:55;1.75;;;1.55;;
25249;SDS011;13201;51.148;13.738;2023-04-15T08:00:21;2.25;;;1.10;;
25249;SDS011;13201;51.148;13.738;2023-04-15T08:02:48;1.85;;;1.02;;
25249;SDS011;13201;51.148;13.738;2023-04-15T08:05:13;1.33;;;0.93;;
25249;SDS011;13201;51.148;13.738;2023-04-15T08:07:39;2.38;;;0.93;;
25249;SDS011;13201;51.148;13.738;2023-04-15T08:10:05;1.98;;;1.20;;
25249;SDS011;13201;51.148;13.738;2023-04-15T08:12:32;3.95;;;2.08;;
25249;SDS011;13201;51.148;13.738;2023-04-15T08:14:57;5.68;;;3.67;;
25249;SDS011;13201;51.148;13.738;2023-04-15T08:17:23;1.45;;;1.20;;
25249;SDS011;13201;51.148;13.738;2023-04-15T08:19:49;1.48;;;1.20;;
25249;SDS011;13201;51.148;13.738;2023-04-15T08:22:15;1.65;;;1.30;;
25249;SDS011;13201;51.148;13.738;2023-04-15T08:24:41;3.27;;;1.87;;
25249;SDS011;13201;51.148;13.738;2023-04-15T08:27:07;3.40;;;2.20;;
25249;SDS011;13201;51.148;13.738;2023-04-15T08:29:33;1.85;;;1.30;;
25249;SDS011;13201;51.148;13.738;2023-04-15T08:31:59;1.80;;;1.20;;
25249;SDS011;13201;51.148;13.738;2023-04-15T08:34:25;1.40;;;0.82;;
25249;SDS011;13201;51.148;13.738;2023-04-15T08:36:51;1.70;;;1.40;;
25249;SDS011;13201;51.148;13.738;2023-04-15T08:39:17;2.75;;;1.83;;
25249;SDS011;13201;51.148;13.738;2023-04-15T08:44:43;1.02;;;0.60;;
25249;SDS011;13201;51.148;13.738;2023-04-15T08:47:12;1.23;;;0.85;;
25249;SDS011;13201;51.148;13.738;2023-04-15T08:49:41;0.82;;;0.65;;
25249;SDS011;13201;51.148;13.738;2023-04-15T08:52:07;1.05;;;0.65;;
25249;SDS011;13201;51.148;13.738;2023-04-15T08:54:33;0.90;;;0.73;;
25249;SDS011;13201;51.148;13.738;2023-04-15T08:57:00;0.80;;;0.68;;
25249;SDS011;13201;51.148;13.738;2023-04-15T08:59:26;1.47;;;0.90;;
25249;SDS011;13201;51.148;13.738;2023-04-15T09:01:54;1.55;;;1.00;;
25249;SDS011;13201;51.148;13.738;2023-04-15T09:04:21;1.20;;;0.90;;
25249;SDS011;13201;51.148;13.738;2023-04-15T09:06:47;1.35;;;1.00;;
25249;SDS011;13201;51.148;13.738;2023-04-15T09:09:12;1.67;;;1.10;;
25249;SDS011;13201;51.148;13.738;2023-04-15T09:11:38;8.05;;;4.07;;
25249;SDS011;13201;51.148;13.738;2023-04-15T09:14:04;9.43;;;3.38;;
25249;SDS011;13201;51.148;13.738;2023-04-15T09:16:30;5.35;;;2.85;;
25249;SDS011;13201;51.148;13.738;2023-04-15T09:18:56;8.77;;;5.90;;
25249;SDS011;13201;51.148;13.738;2023-04-15T09:21:22;4.68;;;3.80;;
25249;SDS011;13201;51.148;13.738;2023-04-15T09:23:55;5.25;;;3.55;;
25249;SDS011;13201;51.148;13.738;2023-04-15T09:26:32;25.23;;;18.45;;
25249;SDS011;13201;51.148;13.738;2023-04-15T09:29:05;12.93;;;10.18;;
25249;SDS011;13201;51.148;13.738;2023-04-15T09:31:32;25.20;;;17.35;;
25249;SDS011;13201;51.148;13.738;2023-04-15T09:33:58;15.05;;;10.73;;
25249;SDS011;13201;51.148;13.738;2023-04-15T09:36:23;3.47;;;2.03;;
25249;SDS011;13201;51.148;13.738;2023-04-15T09:38:54;2.00;;;1.80;;
25249;SDS011;13201;51.148;13.738;2023-04-15T09:41:21;3.50;;;1.77;;
25249;SDS011;13201;51.148;13.738;2023-04-15T09:43:47;2.47;;;1.80;;
25249;SDS011;13201;51.148;13.738;2023-04-15T09:46:13;5.10;;;2.10;;
25249;SDS011;13201;51.148;13.738;2023-04-15T09:48:38;3.95;;;2.10;;
25249;SDS011;13201;51.148;13.738;2023-04-15T09:51:04;2.33;;;1.70;;
25249;SDS011;13201;51.148;13.738;2023-04-15T09:53:33;2.35;;;1.90;;
25249;SDS011;13201;51.148;13.738;2023-04-15T09:56:01;2.47;;;1.58;;
25249;SDS011;13201;51.148;13.738;2023-04-15T09:58:27;2.77;;;2.03;;
25249;SDS011;13201;51.148;13.738;2023-04-15T10:00:55;2.50;;;1.90;;
25249;SDS011;13201;51.148;13.738;2023-04-15T10:05:47;1.90;;;1.60;;
25249;SDS011;13201;51.148;13.738;2023-04-15T10:08:15;2.92;;;2.17;;
25249;SDS011;13201;51.148;13.738;2023-04-15T10:10:43;3.13;;;2.00;;
25249;SDS011;13201;51.148;13.738;2023-04-15T10:13:10;3.75;;;2.80;;
25249;SDS011;13201;51.148;13.738;2023-04-15T10:15:38;3.03;;;2.00;;
25249;SDS011;13201;51.148;13.738;2023-04-15T10:18:07;4.13;;;2.20;;
25249;SDS011;13201;51.148;13.738;2023-04-15T10:20:35;2.70;;;2.15;;
25249;SDS011;13201;51.148;13.738;2023-04-15T10:23:02;2.53;;;2.10;;
25249;SDS011;13201;51.148;13.738;2023-04-15T10:25:28;3.07;;;2.20;;
25249;SDS011;13201;51.148;13.738;2023-04-15T10:27:54;3.40;;;2.20;;
25249;SDS011;13201;51.148;13.738;2023-04-15T10:32:47;3.83;;;2.60;;
25249;SDS011;13201;51.148;13.738;2023-04-15T10:35:13;5.85;;;3.50;;
25249;SDS011;13201;51.148;13.738;2023-04-15T10:37:40;5.82;;;2.92;;
25249;SDS011;13201;51.148;13.738;2023-04-15T10:42:53;4.40;;;2.60;;
25249;SDS011;13201;51.148;13.738;2023-04-15T10:45:24;2.92;;;2.20;;
25249;SDS011;13201;51.148;13.738;2023-04-15T10:47:55;3.15;;;2.50;;
25249;SDS011;13201;51.148;13.738;2023-04-15T10:50:24;4.15;;;2.80;;
25249;SDS011;13201;51.148;13.738;2023-04-15T10:52:51;3.13;;;2.45;;
25249;SDS011;13201;51.148;13.738;2023-04-15T10:55:21;3.63;;;2.50;;
25249;SDS011;13201;51.148;13.738;2023-04-15T10:57:51;3.15;;;2.50;;
25249;SDS011;13201;51.148;13.738;2023-04-15T11:00:18;3.15;;;2.20;;
25249;SDS011;13201;51.148;13.738;2023-04-15T11:02:52;3.45;;;2.30;;
25249;SDS011;13201;51.148;13.738;2023-04-15T11:05:21;3.97;;;2.47;;
25249;SDS011;13201;51.148;13.738;2023-04-15T11:08:11;3.50;;;2.22;;
25249;SDS011;13201;51.148;13.738;2023-04-15T11:13:04;3.53;;;2.70;;
25249;SDS011;13201;51.148;13.738;2023-04-15T11:18:09;3.00;;;2.40;;
25249;SDS011;13201;51.148;13.738;2023-04-15T11:20:36;3.00;;;2.10;;
25249;SDS011;13201;51.148;13.738;2023-04-15T11:25:32;2.38;;;2.10;;
25249;SDS011;13201;51.148;13.738;2023-04-15T11:27:59;2.83;;;2.28;;
25249;SDS011;13201;51.148;13.738;2023-04-15T11:30:30;2.53;;;1.90;;
25249;SDS011;13201;51.148;13.738;2023-04-15T11:32:58;3.05;;;2.00;;
25249;SDS011;13201;51.148;13.738;2023-04-15T11:35:28;2.22;;;1.77;;
25249;SDS011;13201;51.148;13.738;2023-04-15T11:37:54;2.20;;;1.67;;
25249;SDS011;13201;51.148;13.738;2023-04-15T11:40:24;12.85;;;2.17;;
25249;SDS011;13201;51.148;13.738;2023-04-15T11:43:03;2.55;;;1.98;;
25249;SDS011;13201;51.148;13.738;2023-04-15T11:45:59;1.60;;;1.50;;
25249;SDS011;13201;51.148;13.738;2023-04-15T11:48:30;3.28;;;1.67;;
25249;SDS011;13201;51.148;13.738;2023-04-15T11:51:00;1.92;;;1.60;;
25249;SDS011;13201;51.148;13.738;2023-04-15T11:53:36;2.67;;;2.10;;
25249;SDS011;13201;51.148;13.738;2023-04-15T11:56:08;1.98;;;1.60;;
25249;SDS011;13201;51.148;13.738;2023-04-15T11:58:35;2.50;;;2.00;;
25249;SDS011;13201;51.148;13.738;2023-04-15T12:01:02;2.72;;;1.75;;
25249;SDS011;13201;51.148;13.738;2023-04-15T12:11:41;1.83;;;1.60;;
25249;SDS011;13201;51.148;13.738;2023-04-15T12:16:45;2.20;;;1.70;;
25249;SDS011;13201;51.148;13.738;2023-04-15T12:19:17;1.73;;;1.45;;
25249;SDS011;13201;51.148;13.738;2023-04-15T12:21:47;2.22;;;1.80;;
25249;SDS011;13201;51.148;13.738;2023-04-15T12:24:14;2.17;;;1.70;;
25249;SDS011;13201;51.148;13.738;2023-04-15T12:29:16;1.75;;;1.35;;
25249;SDS011;13201;51.148;13.738;2023-04-15T12:32:24;1.80;;;1.27;;
25249;SDS011;13201;51.148;13.738;2023-04-15T12:34:36;1.75;;;1.23;;
25249;SDS011;13201;51.148;13.738;2023-04-15T12:37:04;3.88;;;1.60;;
25249;SDS011;13201;51.148;13.738;2023-04-15T12:39:42;1.90;;;1.35;;
25249;SDS011;13201;51.148;13.738;2023-04-15T12:42:10;2.42;;;1.42;;
25249;SDS011;13201;51.148;13.738;2023-04-15T12:44:36;1.63;;;1.10;;
25249;SDS011;13201;51.148;13.738;2023-04-15T12:47:03;1.60;;;1.40;;
25249;SDS011;13201;51.148;13.738;2023-04-15T12:49:29;1.98;;;1.15;;
25249;SDS011;13201;51.148;13.738;2023-04-15T12:51:56;3.75;;;2.10;;
25249;SDS011;13201;51.148;13.738;2023-04-15T12:54:27;2.17;;;1.65;;
25249;SDS011;13201;51.148;13.738;2023-04-15T12:56:53;2.45;;;1.70;;
25249;SDS011;13201;51.148;13.738;2023-04-15T12:59:19;2.63;;;2.03;;
25249;SDS011;13201;51.148;13.738;2023-04-15T13:01:46;2.30;;;1.20;;
25249;SDS011;13201;51.148;13.738;2023-04-15T13:04:13;1.35;;;1.23;;
25249;SDS011;13201;51.148;13.738;2023-04-15T13:06:39;1.67;;;1.10;;
25249;SDS011;13201;51.148;13.738;2023-04-15T13:09:05;1.65;;;1.02;;
25249;SDS011;13201;51.148;13.738;2023-04-15T13:11:31;1.13;;;1.00;;
25249;SDS011;13201;51.148;13.738;2023-04-15T13:14:00;2.90;;;1.20;;
25249;SDS011;13201;51.148;13.738;2023-04-15T13:16:27;3.13;;;1.30;;
25249;SDS011;13201;51.148;13.738;2023-04-15T13:18:53;2.05;;;1.30;;
25249;SDS011;13201;51.148;13.738;2023-04-15T13:21:19;1.58;;;1.17;;
25249;SDS011;13201;51.148;13.738;2023-04-15T13:23:45;1.70;;;1.13;;
25249;SDS011;13201;51.148;13.738;2023-04-15T13:26:11;1.52;;;1.13;;
25249;SDS011;13201;51.148;13.738;2023-04-15T13:28:37;1.42;;;1.00;;
25249;SDS011;13201;51.148;13.738;2023-04-15T13:31:03;1.65;;;1.05;;
25249;SDS011;13201;51.148;13.738;2023-04-15T13:35:55;2.43;;;1.20;;
25249;SDS011;13201;51.148;13.738;2023-04-15T13:38:21;1.45;;;1.20;;
25249;SDS011;13201;51.148;13.738;2023-04-15T13:40:48;2.50;;;1.38;;
25249;SDS011;13201;51.148;13.738;2023-04-15T13:43:14;2.83;;;2.00;;
25249;SDS011;13201;51.148;13.738;2023-04-15T13:45:40;1.97;;;1.40;;
25249;SDS011;13201;51.148;13.738;2023-04-15T13:48:05;2.63;;;1.50;;
25249;SDS011;13201;51.148;13.738;2023-04-15T13:50:31;2.90;;;1.48;;
25249;SDS011;13201;51.148;13.738;2023-04-15T13:52:57;3.03;;;1.45;;
25249;SDS011;13201;51.148;13.738;2023-04-15T13:55:22;2.10;;;1.50;;
25249;SDS011;13201;51.148;13.738;2023-04-15T13:57:48;2.33;;;1.45;;
25249;SDS011;13201;51.148;13.738;2023-04-15T14:00:14;2.03;;;1.43;;
25249;SDS011;13201;51.148;13.738;2023-04-15T14:02:40;1.45;;;1.20;;
25249;SDS011;13201;51.148;13.738;2023-04-15T14:05:06;2.05;;;1.25;;
25249;SDS011;13201;51.148;13.738;2023-04-15T14:07:32;2.07;;;1.60;;
25249;SDS011;13201;51.148;13.738;2023-04-15T14:09:58;3.70;;;1.60;;
25249;SDS011;13201;51.148;13.738;2023-04-15T14:12:24;1.70;;;1.30;;
25249;SDS011;13201;51.148;13.738;2023-04-15T14:14:50;3.72;;;2.70;;
25249;SDS011;13201;51.148;13.738;2023-04-15T14:17:16;2.38;;;1.40;;
25249;SDS011;13201;51.148;13.738;2023-04-15T14:19:41;1.98;;;1.40;;
25249;SDS011;13201;51.148;13.738;2023-04-15T14:22:07;4.72;;;4.05;;
25249;SDS011;13201;51.148;13.738;2023-04-15T14:24:33;2.15;;;1.80;;
25249;SDS011;13201;51.148;13.738;2023-04-15T14:26:58;2.40;;;1.25;;
25249;SDS011;13201;51.148;13.738;2023-04-15T14:29:26;3.97;;;1.70;;
25249;SDS011;13201;51.148;13.738;2023-04-15T14:31:52;1.67;;;1.30;;
25249;SDS011;13201;51.148;13.738;2023-04-15T14:34:17;6.03;;;1.70;;
25249;SDS011;13201;51.148;13.738;2023-04-15T14:36:46;4.53;;;3.00;;
25249;SDS011;13201;51.148;13.738;2023-04-15T14:39:12;3.17;;;1.90;;
25249;SDS011;13201;51.148;13.738;2023-04-15T14:41:38;1.63;;;1.30;;
25249;SDS011;13201;51.148;13.738;2023-04-15T14:44:03;1.77;;;1.55;;
25249;SDS011;13201;51.148;13.738;2023-04-15T14:46:29;2.60;;;1.70;;
25249;SDS011;13201;51.148;13.738;2023-04-15T14:48:55;2.72;;;1.52;;
25249;SDS011;13201;51.148;13.738;2023-04-15T14:51:21;3.47;;;1.67;;
25249;SDS011;13201;51.148;13.738;2023-04-15T14:53:47;2.88;;;1.33;;
25249;SDS011;13201;51.148;13.738;2023-04-15T14:56:13;3.45;;;1.70;;
25249;SDS011;13201;51.148;13.738;2023-04-15T14:58:38;2.45;;;1.80;;
25249;SDS011;13201;51.148;13.738;2023-04-15T15:01:04;2.67;;;1.90;;
25249;SDS011;13201;51.148;13.738;2023-04-15T15:03:30;3.20;;;1.80;;
25249;SDS011;13201;51.148;13.738;2023-04-15T15:05:56;4.18;;;1.95;;
25249;SDS011;13201;51.148;13.738;2023-04-15T15:08:22;5.75;;;2.55;;
25249;SDS011;13201;51.148;13.738;2023-04-15T15:10:48;3.47;;;2.00;;
25249;SDS011;13201;51.148;13.738;2023-04-15T15:13:13;2.53;;;1.52;;
25249;SDS011;13201;51.148;13.738;2023-04-15T15:15:39;2.28;;;1.38;;
25249;SDS011;13201;51.148;13.738;2023-04-15T15:18:06;1.92;;;1.40;;
25249;SDS011;13201;51.148;13.738;2023-04-15T15:20:31;2.33;;;1.55;;
25249;SDS011;13201;51.148;13.738;2023-04-15T15:22:58;2.33;;;1.60;;
25249;SDS011;13201;51.148;13.738;2023-04-15T15:25:24;2.00;;;1.60;;
25249;SDS011;13201;51.148;13.738;2023-04-15T15:27:50;2.28;;;1.60;;
25249;SDS011;13201;51.148;13.738;2023-04-15T15:30:16;3.47;;;1.70;;